Time;durP1;ratioP1;P1;durP2;ratioP2;P2;SDS_P1;SDS_P2;PMS_P1;PMS_P2;Temp;Humidity;BMP_temperature;BMP_pressure;BME280_temperature;BME280_humidity;BME280_pressure;Samples;Min_cycle;Max_cycle;Signal;HPM_P1;HPM_P2
2022/08/08 00:00:11;;;;;;;;;;;;;;;20.29;41.93;101319.19;4980450;28;7772;-75
2022/08/08 00:03:19;;;;;;;;;;;;;;;20.25;42.16;101313.91;5012248;28;6812;-75
2022/08/08 00:06:00;;;;;;;;;;;;;;;20.22;42.52;101316.44;4989722;28;7088;-75
2022/08/08 00:08:49;;;;;;;;;;;;;;;20.19;42.03;101310.31;4972613;28;6853;-75
2022/08/08 00:11:43;;;;;;;;;;;;;;;20.17;42.40;101306.75;4982139;28;7290;-75
2022/08/08 00:14:54;;;;;;;;;;;;;;;20.11;42.44;101315.31;4998636;28;6796;-75
2022/08/08 00:17:47;;;;;;;;;;;;;;;20.10;42.94;101314.44;5009865;28;7167;-75
2022/08/08 00:20:25;;;;;;;;;;;;;;;20.05;42.97;101308.25;4979905;28;6936;-75
2022/08/08 00:22:58;;;;;;;;;;;;;;;20.01;43.02;101306.44;5010289;28;6871;-75
2022/08/08 00:25:40;;;;;;;;;;;;;;;19.96;43.32;101316.72;5010682;28;6878;-75
2022/08/08 00:28:13;;;;;;;;;;;;;;;19.90;42.72;101310.47;4999110;28;7130;-75
2022/08/08 00:30:51;;;;;;;;;;;;;;;19.83;43.30;101307.72;5009351;28;7078;-76
2022/08/08 00:33:23;;;;;;;;;;;;;;;19.75;43.35;101311.84;4968101;28;6812;-75
2022/08/08 00:36:22;;;;;;;;;;;;;;;19.65;43.52;101315.06;4981673;28;7004;-75
2022/08/08 00:39:09;;;;;;;;;;;;;;;19.52;44.03;101309.56;5014621;28;7159;-75
2022/08/08 00:42:02;;;;;;;;;;;;;;;19.43;44.76;101312.78;5011298;28;7260;-75
2022/08/08 00:44:49;;;;;;;;;;;;;;;19.37;44.74;101311.75;5029859;28;7042;-75
2022/08/08 00:47:59;;;;;;;;;;;;;;;19.31;45.31;101306.38;4978574;28;6811;-75
2022/08/08 00:50:56;;;;;;;;;;;;;;;19.20;45.06;101312.16;5015238;28;7083;-75
2022/08/08 00:53:58;;;;;;;;;;;;;;;19.12;45.41;101308.47;5029110;28;7213;-75
2022/08/08 00:56:51;;;;;;;;;;;;;;;19.05;45.34;101314.38;5012212;28;6975;-75
2022/08/08 00:59:31;;;;;;;;;;;;;;;18.95;46.37;101314.09;4980681;28;6804;-75
2022/08/08 01:02:56;;;;;;;;;;;;;;;18.87;45.84;101315.56;5011129;28;6992;-75
2022/08/08 01:05:58;;;;;;;;;;;;;;;18.76;46.28;101312.66;5000828;28;7856;-75
2022/08/08 01:09:02;;;;;;;;;;;;;;;18.66;46.57;101321.91;4984462;28;6988;-76
2022/08/08 01:11:42;;;;;;;;;;;;;;;18.58;46.37;101324.25;4980233;28;7047;-76
2022/08/08 01:15:05;;;;;;;;;;;;;;;18.52;46.54;101318.91;4980266;28;7040;-75
2022/08/08 01:18:06;;;;;;;;;;;;;;;18.41;46.62;101318.56;4970001;28;6800;-75
2022/08/08 01:21:17;;;;;;;;;;;;;;;18.37;46.92;101315.84;5010045;28;7167;-75
2022/08/08 01:23:54;;;;;;;;;;;;;;;18.33;47.35;101314.88;5001946;28;7023;-75
2022/08/08 01:26:57;;;;;;;;;;;;;;;18.33;47.62;101322.66;5012621;28;6838;-75
2022/08/08 01:30:27;;;;;;;;;;;;;;;18.29;47.41;101318.22;4981496;28;6832;-75
2022/08/08 01:33:17;;;;;;;;;;;;;;;18.22;47.43;101311.97;4965272;28;11181;-75
2022/08/08 01:36:35;;;;;;;;;;;;;;;18.14;48.00;101310.84;4979058;28;6815;-75
2022/08/08 01:39:57;;;;;;;;;;;;;;;18.04;48.16;101309.66;4978101;28;7453;-75
2022/08/08 01:42:33;;;;;;;;;;;;;;;17.95;48.29;101312.81;4978830;28;6827;-75
2022/08/08 01:45:34;;;;;;;;;;;;;;;17.91;48.34;101306.63;4977012;28;7282;-75
2022/08/08 01:48:18;;;;;;;;;;;;;;;17.85;48.43;101306.44;4977027;28;6816;-75
2022/08/08 01:51:13;;;;;;;;;;;;;;;17.80;48.36;101313.19;4980543;28;7843;-75
2022/08/08 01:54:00;;;;;;;;;;;;;;;17.76;48.19;101312.22;4999652;28;6997;-75
2022/08/08 01:56:35;;;;;;;;;;;;;;;17.72;48.23;101315.53;4984695;28;6896;-75
2022/08/08 01:59:22;;;;;;;;;;;;;;;17.67;48.13;101306.72;4981629;28;6959;-75
2022/08/08 02:02:13;;;;;;;;;;;;;;;17.61;48.31;101307.41;5012350;28;6954;-75
2022/08/08 02:05:06;;;;;;;;;;;;;;;17.56;48.22;101314.13;4987212;28;7158;-75
2022/08/08 02:08:01;;;;;;;;;;;;;;;17.51;48.73;101315.69;4980964;28;6990;-75
2022/08/08 02:10:41;;;;;;;;;;;;;;;17.43;48.46;101318.03;4982701;28;6836;-75
2022/08/08 02:13:20;;;;;;;;;;;;;;;17.40;48.46;101317.03;5024593;28;7004;-75
2022/08/08 02:16:21;;;;;;;;;;;;;;;17.35;48.75;101320.34;4982812;28;7236;-75
2022/08/08 02:19:30;;;;;;;;;;;;;;;17.31;48.94;101321.06;4987630;28;6848;-75
2022/08/08 02:22:31;;;;;;;;;;;;;;;17.27;49.28;101326.09;4981894;28;7187;-75
2022/08/08 02:25:18;;;;;;;;;;;;;;;17.22;49.15;101318.16;4985210;28;7385;-75
2022/08/08 02:28:15;;;;;;;;;;;;;;;17.19;49.75;101320.63;4984393;28;6819;-75
2022/08/08 02:31:28;;;;;;;;;;;;;;;17.14;49.62;101312.72;4982838;28;6815;-75
2022/08/08 02:34:31;;;;;;;;;;;;;;;17.12;49.56;101318.66;5005315;28;6876;-75
2022/08/08 02:37:27;;;;;;;;;;;;;;;17.08;49.90;101315.06;4977135;28;7226;-75
2022/08/08 02:40:00;;;;;;;;;;;;;;;17.05;50.14;101315.84;5011794;28;6816;-75
2022/08/08 02:43:24;;;;;;;;;;;;;;;17.03;50.15;101317.50;5010632;28;7060;-75
2022/08/08 02:46:17;;;;;;;;;;;;;;;16.98;49.95;101319.00;4998096;28;6808;-75
2022/08/08 02:49:19;;;;;;;;;;;;;;;16.95;50.13;101311.13;4983646;28;6936;-75
2022/08/08 02:52:27;;;;;;;;;;;;;;;16.90;50.35;101304.88;5013622;28;7001;-76
2022/08/08 02:55:20;;;;;;;;;;;;;;;16.88;50.58;101306.53;5008295;28;6812;-76
2022/08/08 02:58:11;;;;;;;;;;;;;;;16.84;50.67;101312.44;5013964;28;7003;-76
2022/08/08 03:01:30;;;;;;;;;;;;;;;16.79;50.97;101318.31;5013645;28;7263;-76
2022/08/08 03:04:18;;;;;;;;;;;;;;;16.74;51.26;101314.69;4963656;28;7007;-76
2022/08/08 03:07:09;;;;;;;;;;;;;;;16.70;51.04;101317.09;4971191;28;6912;-76
2022/08/08 03:10:30;;;;;;;;;;;;;;;16.66;50.81;101316.09;5017420;28;6966;-76
2022/08/08 03:13:40;;;;;;;;;;;;;;;16.63;50.89;101316.00;5000606;28;7139;-76
2022/08/08 03:16:31;;;;;;;;;;;;;;;16.59;51.32;101319.28;4979789;28;7006;-76
2022/08/08 03:19:25;;;;;;;;;;;;;;;16.52;51.62;101319.06;4973249;28;7021;-76
2022/08/08 03:21:50;;;;;;;;;;;;;;;16.48;51.47;101317.16;5012341;28;6821;-76
2022/08/08 03:24:19;;;;;;;;;;;;;;;16.48;51.78;101318.88;4982212;28;6780;-76
2022/08/08 03:26:54;;;;;;;;;;;;;;;16.46;52.00;101320.50;4979374;28;7219;-76
2022/08/08 03:29:28;;;;;;;;;;;;;;;16.45;51.61;101317.06;4976055;28;7339;-76
2022/08/08 03:34:40;;;;;;;;;;;;;;;16.40;51.67;101326.31;4989249;28;6812;-76
2022/08/08 03:37:10;;;;;;;;;;;;;;;16.38;51.71;101323.69;4991741;28;7107;-76
2022/08/08 03:39:36;;;;;;;;;;;;;;;16.39;52.20;101340.09;4964577;28;6812;-76
2022/08/08 03:42:03;;;;;;;;;;;;;;;16.36;52.22;101332.22;4987056;28;7503;-76
2022/08/08 03:44:35;;;;;;;;;;;;;;;16.33;52.65;101334.69;4959457;28;6952;-76
2022/08/08 03:47:01;;;;;;;;;;;;;;;16.32;52.88;101338.06;4988568;28;6817;-76
2022/08/08 03:49:27;;;;;;;;;;;;;;;16.31;52.40;101341.50;4992196;28;6800;-76
2022/08/08 03:51:55;;;;;;;;;;;;;;;16.28;52.67;101347.44;4956839;28;7234;-76
2022/08/08 03:54:23;;;;;;;;;;;;;;;16.26;52.97;101343.91;4956714;28;6966;-76
2022/08/08 03:56:50;;;;;;;;;;;;;;;16.24;52.65;101349.03;4980018;28;7368;-76
2022/08/08 03:59:16;;;;;;;;;;;;;;;16.22;52.63;101347.19;4972092;28;6996;-76
2022/08/08 04:01:42;;;;;;;;;;;;;;;16.20;52.99;101354.88;5000726;28;6876;-76
2022/08/08 04:04:09;;;;;;;;;;;;;;;16.18;52.63;101350.50;4982524;28;6800;-77
2022/08/08 04:06:34;;;;;;;;;;;;;;;16.15;53.19;101358.09;5026236;28;7588;-77
2022/08/08 04:09:05;;;;;;;;;;;;;;;16.15;53.53;101358.09;5010103;28;6941;-76
2022/08/08 04:11:31;;;;;;;;;;;;;;;16.15;53.18;101358.09;5008140;28;6946;-76
2022/08/08 04:13:57;;;;;;;;;;;;;;;16.13;53.36;101358.06;4983553;28;6784;-76
2022/08/08 04:16:25;;;;;;;;;;;;;;;16.11;53.07;101357.09;4995291;28;8093;-76
2022/08/08 04:18:50;;;;;;;;;;;;;;;16.09;53.50;101354.47;4999559;28;6962;-76
2022/08/08 04:21:16;;;;;;;;;;;;;;;16.09;54.01;101366.50;5011780;28;6839;-77
2022/08/08 04:23:43;;;;;;;;;;;;;;;16.08;53.90;101368.22;4999573;28;7110;-76
2022/08/08 04:26:09;;;;;;;;;;;;;;;16.07;53.87;101368.16;4992763;28;6974;-76
2022/08/08 04:28:34;;;;;;;;;;;;;;;16.07;53.69;101369.00;4996005;28;7136;-76
2022/08/08 04:31:00;;;;;;;;;;;;;;;16.09;53.59;101369.97;4980296;28;7217;-77
2022/08/08 04:33:26;;;;;;;;;;;;;;;16.14;53.78;101366.69;4974802;28;6964;-77
2022/08/08 04:35:52;;;;;;;;;;;;;;;16.22;54.41;101371.38;4998494;28;6944;-77
2022/08/08 04:38:18;;;;;;;;;;;;;;;16.33;54.82;101378.69;4981127;28;7824;-76
2022/08/08 04:40:44;;;;;;;;;;;;;;;16.46;54.95;101377.44;5006753;28;6788;-77
2022/08/08 04:43:09;;;;;;;;;;;;;;;16.64;54.87;101380.75;4975861;28;6918;-77
2022/08/08 04:45:35;;;;;;;;;;;;;;;16.84;55.25;101385.78;4981552;28;7271;-77
2022/08/08 04:48:02;;;;;;;;;;;;;;;17.03;54.85;101381.34;5014689;28;6922;-76
2022/08/08 04:50:28;;;;;;;;;;;;;;;17.21;54.72;101391.53;4967357;28;6983;-77
2022/08/08 04:52:55;;;;;;;;;;;;;;;17.37;54.05;101379.09;5012443;28;7226;-77
2022/08/08 04:55:21;;;;;;;;;;;;;;;17.52;54.05;101378.75;5012892;28;6980;-76
2022/08/08 04:57:46;;;;;;;;;;;;;;;17.63;53.91;101380.03;4975173;28;6792;-77
2022/08/08 05:00:13;;;;;;;;;;;;;;;17.76;54.04;101383.91;4994422;28;6913;-77
2022/08/08 05:02:38;;;;;;;;;;;;;;;17.95;54.38;101379.34;5012868;28;11234;-77
2022/08/08 05:05:05;;;;;;;;;;;;;;;18.20;54.04;101386.25;5009599;28;7130;-76
2022/08/08 05:07:31;;;;;;;;;;;;;;;18.49;54.39;101383.69;5000062;28;7141;-77
2022/08/08 05:09:57;;;;;;;;;;;;;;;18.80;54.56;101378.56;5012149;28;6954;-77
2022/08/08 05:12:22;;;;;;;;;;;;;;;19.10;53.69;101375.13;4982205;28;6780;-77
2022/08/08 05:14:48;;;;;;;;;;;;;;;19.33;52.75;101369.69;4980292;28;6775;-78
2022/08/08 05:17:14;;;;;;;;;;;;;;;19.54;52.81;101370.28;5009599;28;7270;-77
2022/08/08 05:19:39;;;;;;;;;;;;;;;19.74;52.08;101377.72;5010294;28;6787;-77
2022/08/08 05:22:07;;;;;;;;;;;;;;;19.95;51.83;101376.50;5027778;28;7132;-77
2022/08/08 05:24:34;;;;;;;;;;;;;;;20.19;52.49;101364.97;4981363;28;6792;-77
2022/08/08 05:27:00;;;;;;;;;;;;;;;20.47;51.91;101368.16;4983391;28;7561;-77
2022/08/08 05:29:27;;;;;;;;;;;;;;;20.77;51.37;101373.19;4970445;28;6941;-77
2022/08/08 05:31:53;;;;;;;;;;;;;;;21.00;50.46;101366.72;4952744;28;6824;-77
2022/08/08 05:34:41;;;;;;;;;;;;;;;21.16;49.62;101371.41;4987407;28;7353;-77
2022/08/08 05:37:08;;;;;;;;;;;;;;;21.25;49.41;101367.22;4955822;28;6834;-77
2022/08/08 05:39:35;;;;;;;;;;;;;;;21.35;49.62;101363.94;4969866;28;7206;-77
2022/08/08 05:42:00;;;;;;;;;;;;;;;21.50;49.54;101361.59;5003279;28;7960;-78
2022/08/08 05:44:29;;;;;;;;;;;;;;;21.67;48.95;101374.09;4976258;28;6957;-77
2022/08/08 05:46:57;;;;;;;;;;;;;;;21.84;48.67;101368.31;4982463;28;6800;-77
2022/08/08 05:49:23;;;;;;;;;;;;;;;21.95;48.28;101377.19;4981415;28;7247;-76
2022/08/08 05:51:49;;;;;;;;;;;;;;;22.00;46.98;101379.88;5011676;28;7218;-76
2022/08/08 05:54:17;;;;;;;;;;;;;;;21.98;46.99;101378.97;4982077;28;6772;-76
2022/08/08 05:56:44;;;;;;;;;;;;;;;21.94;46.67;101385.88;4979678;28;7151;-76
2022/08/08 05:59:20;;;;;;;;;;;;;;;21.85;46.31;101385.72;4975842;28;6816;-77
2022/08/08 06:01:53;;;;;;;;;;;;;;;21.74;46.33;101389.00;4981754;28;6796;-77
2022/08/08 06:04:26;;;;;;;;;;;;;;;21.64;46.27;101392.28;4972603;28;7252;-77
2022/08/08 06:07:02;;;;;;;;;;;;;;;21.48;46.74;101392.00;4983475;28;7425;-77
2022/08/08 06:09:33;;;;;;;;;;;;;;;21.37;46.53;101396.13;4981372;28;7157;-77
2022/08/08 06:12:02;;;;;;;;;;;;;;;21.27;46.71;101392.44;4974685;28;7180;-77
2022/08/08 06:14:29;;;;;;;;;;;;;;;21.20;47.06;101396.66;4982684;28;6867;-77
2022/08/08 06:17:00;;;;;;;;;;;;;;;21.17;46.83;101396.63;4977197;28;7214;-77
2022/08/08 06:19:26;;;;;;;;;;;;;;;21.15;47.32;101407.84;4994864;28;7059;-77
2022/08/08 06:21:52;;;;;;;;;;;;;;;21.11;47.24;101406.06;4967516;28;6973;-77
2022/08/08 06:24:18;;;;;;;;;;;;;;;21.07;47.24;101407.72;5013097;28;6788;-77
2022/08/08 06:27:00;;;;;;;;;;;;;;;21.02;47.37;101406.72;5006089;28;7162;-77
2022/08/08 06:29:38;;;;;;;;;;;;;;;20.99;47.63;101417.94;4991456;28;7119;-76
2022/08/08 06:32:13;;;;;;;;;;;;;;;21.00;47.97;101417.09;4970120;28;6813;-76
2022/08/08 06:34:46;;;;;;;;;;;;;;;21.03;48.25;101419.78;5007421;28;6815;-77
2022/08/08 06:37:13;;;;;;;;;;;;;;;21.07;48.17;101420.75;4980963;28;6864;-77
2022/08/08 06:39:47;;;;;;;;;;;;;;;21.13;48.19;101431.28;4981910;28;7210;-77
2022/08/08 06:42:17;;;;;;;;;;;;;;;21.20;48.60;101432.31;5011639;28;7013;-77
2022/08/08 06:44:49;;;;;;;;;;;;;;;21.23;48.36;101428.00;5015166;28;7235;-77
2022/08/08 06:47:15;;;;;;;;;;;;;;;21.26;47.86;101428.94;5013980;28;6939;-77
2022/08/08 06:49:41;;;;;;;;;;;;;;;21.28;48.11;101428.09;5015135;28;6795;-76
2022/08/08 06:52:09;;;;;;;;;;;;;;;21.33;48.52;101426.47;4981472;28;6791;-76
2022/08/08 06:54:36;;;;;;;;;;;;;;;21.41;48.25;101428.38;5014282;28;6807;-76
2022/08/08 06:57:02;;;;;;;;;;;;;;;21.46;48.51;101430.22;5010432;28;7141;-77
2022/08/08 06:59:28;;;;;;;;;;;;;;;21.53;48.31;101425.09;4980945;28;6784;-76
2022/08/08 07:02:23;;;;;;;;;;;;;;;21.60;48.22;101429.56;4978138;28;6859;-76
2022/08/08 07:04:56;;;;;;;;;;;;;;;21.68;48.47;101432.34;4979418;28;7221;-77
2022/08/08 07:08:02;;;;;;;;;;;;;;;21.75;48.11;101435.13;5012747;28;7177;-78
2022/08/08 07:10:36;;;;;;;;;;;;;;;21.85;47.69;101438.75;4981612;28;6879;-77
2022/08/08 07:13:09;;;;;;;;;;;;;;;21.94;47.58;101430.22;5010407;28;6984;-77
2022/08/08 07:15:50;;;;;;;;;;;;;;;22.03;47.75;101438.22;5010986;28;6957;-77
2022/08/08 07:18:56;;;;;;;;;;;;;;;22.11;47.72;101440.94;4977477;28;6877;-77
2022/08/08 07:21:31;;;;;;;;;;;;;;;22.22;47.22;101437.63;5012418;28;7241;-77
2022/08/08 07:24:08;;;;;;;;;;;;;;;22.34;47.18;101443.94;5010546;28;6899;-77
2022/08/08 07:26:38;;;;;;;;;;;;;;;;;;4996341;28;6995;-77
2022/08/08 07:29:04;;;;;;;;;;;;;;;22.62;47.31;101451.34;4982146;28;8264;-77
2022/08/08 07:31:31;;;;;;;;;;;;;;;22.76;47.09;101451.53;4993198;28;7213;-78
2022/08/08 07:33:58;;;;;;;;;;;;;;;22.91;46.83;101450.00;4978924;28;7332;-78
2022/08/08 07:36:25;;;;;;;;;;;;;;;23.04;46.30;101454.53;5027189;28;7236;-78
2022/08/08 07:38:52;;;;;;;;;;;;;;;23.13;45.95;101449.41;4998951;28;7101;-79
2022/08/08 07:41:19;;;;;;;;;;;;;;;23.22;45.76;101460.84;5029491;28;6982;-78
2022/08/08 07:43:49;;;;;;;;;;;;;;;23.27;44.83;101451.31;4982596;28;7242;-77
2022/08/08 07:46:14;;;;;;;;;;;;;;;23.36;45.27;101456.69;4986272;28;6796;-77
2022/08/08 07:48:40;;;;;;;;;;;;;;;23.51;44.94;101457.72;4978619;28;6939;-77
2022/08/08 07:51:08;;;;;;;;;;;;;;;23.67;45.49;101461.38;5013617;28;7240;-76
2022/08/08 07:54:11;;;;;;;;;;;;;;;23.84;45.27;101458.94;4978546;28;8063;-77
2022/08/08 07:57:15;;;;;;;;;;;;;;;24.02;44.92;101465.22;4986166;28;6812;-76
2022/08/08 08:00:06;;;;;;;;;;;;;;;24.20;44.30;101454.94;4980767;28;6796;-77
2022/08/08 08:03:01;;;;;;;;;;;;;;;24.35;43.24;101458.53;4960646;28;6973;-77
2022/08/08 08:05:29;;;;;;;;;;;;;;;24.41;42.99;101451.59;5017230;28;7923;-77
2022/08/08 08:08:24;;;;;;;;;;;;;;;24.52;43.23;101462.13;5014933;28;7363;-77
2022/08/08 08:10:54;;;;;;;;;;;;;;;24.64;42.40;101463.09;4981313;28;8033;-77
2022/08/08 08:13:45;;;;;;;;;;;;;;;24.73;42.69;101465.78;5006397;28;7665;-78
2022/08/08 08:16:21;;;;;;;;;;;;;;;24.88;42.66;101467.66;4982946;28;7226;-77
2022/08/08 08:18:55;;;;;;;;;;;;;;;25.04;42.48;101465.97;5013031;28;6816;-77
2022/08/08 08:21:23;;;;;;;;;;;;;;;25.17;41.52;101466.03;5011425;28;7304;-77
2022/08/08 08:23:49;;;;;;;;;;;;;;;25.26;41.48;101467.81;5010176;28;7194;-77
2022/08/08 08:26:17;;;;;;;;;;;;;;;25.28;41.34;101466.94;5014303;28;7180;-77
2022/08/08 08:28:43;;;;;;;;;;;;;;;25.32;40.37;101466.09;5026783;28;7256;-77
2022/08/08 08:31:09;;;;;;;;;;;;;;;25.37;40.68;101464.34;5007926;28;6804;-77
2022/08/08 08:33:35;;;;;;;;;;;;;;;25.47;40.82;101461.75;5010616;28;6800;-76
2022/08/08 08:36:01;;;;;;;;;;;;;;;25.59;40.15;101463.56;4988485;28;7170;-77
2022/08/08 08:38:28;;;;;;;;;;;;;;;25.71;40.45;101458.34;5009895;28;7245;-77
2022/08/08 08:40:53;;;;;;;;;;;;;;;25.85;40.29;101466.22;5011006;28;7036;-77
2022/08/08 08:43:20;;;;;;;;;;;;;;;26.02;39.90;101460.13;4974186;28;7103;-77
2022/08/08 08:45:48;;;;;;;;;;;;;;;26.25;39.54;101459.28;4992384;28;7269;-77
2022/08/08 08:48:18;;;;;;;;;;;;;;;26.47;39.21;101466.28;4980274;28;6958;-77
2022/08/08 08:50:50;;;;;;;;;;;;;;;26.73;38.56;101467.94;4975568;28;7063;-77
2022/08/08 08:53:15;;;;;;;;;;;;;;;27.00;37.47;101462.66;5007782;28;6788;-78
2022/08/08 08:55:43;;;;;;;;;;;;;;;27.22;37.02;101460.78;5008313;28;7203;-77
2022/08/08 08:58:25;;;;;;;;;;;;;;;27.47;36.48;101455.41;5007454;28;6894;-77
2022/08/08 09:00:53;;;;;;;;;;;;;;;27.78;36.04;101459.66;5009531;28;8267;-77
2022/08/08 09:03:22;;;;;;;;;;;;;;;28.16;35.57;101455.84;4981123;28;6815;-77
2022/08/08 09:05:49;;;;;;;;;;;;;;;28.59;34.37;101461.59;4992569;28;7133;-77
2022/08/08 09:08:17;;;;;;;;;;;;;;;29.02;33.58;101463.78;5014246;28;6807;-77
2022/08/08 09:10:43;;;;;;;;;;;;;;;29.43;33.27;101457.97;5025795;28;7297;-77
2022/08/08 09:13:09;;;;;;;;;;;;;;;29.97;32.82;101454.53;5011138;28;6936;-78
2022/08/08 09:15:35;;;;;;;;;;;;;;;30.48;31.89;101456.28;4982537;28;6864;-78
2022/08/08 09:18:03;;;;;;;;;;;;;;;30.89;30.94;101461.69;5010996;28;8293;-77
2022/08/08 09:20:30;;;;;;;;;;;;;;;31.37;30.67;101457.16;4981364;28;6784;-77
2022/08/08 09:22:56;;;;;;;;;;;;;;;31.93;29.37;101453.22;5026414;28;7353;-78
2022/08/08 09:25:23;;;;;;;;;;;;;;;32.53;28.57;101449.94;5011615;28;7162;-78
2022/08/08 09:27:50;;;;;;;;;;;;;;;32.92;27.99;101447.09;5007061;28;6780;-78
2022/08/08 09:30:16;;;;;;;;;;;;;;;33.21;27.40;101447.97;4989896;28;7060;-78
2022/08/08 09:32:55;;;;;;;;;;;;;;;33.58;27.48;101432.69;5007507;28;7116;-77
2022/08/08 09:35:29;;;;;;;;;;;;;;;34.03;26.33;101435.66;4981523;28;6840;-78
2022/08/08 09:38:02;;;;;;;;;;;;;;;34.40;25.93;101433.50;5007452;28;6796;-78
2022/08/08 09:40:30;;;;;;;;;;;;;;;34.58;25.44;101435.50;5008093;28;6811;-78
2022/08/08 09:43:29;;;;;;;;;;;;;;;34.62;25.38;101433.59;5008057;28;6788;-78
2022/08/08 09:45:59;;;;;;;;;;;;;;;34.64;25.24;101430.91;4967510;28;7189;-77
2022/08/08 09:48:30;;;;;;;;;;;;;;;34.98;25.44;101425.13;5019645;28;6995;-77
2022/08/08 09:51:00;;;;;;;;;;;;;;;35.52;24.78;101427.47;4975261;28;7215;-78
2022/08/08 09:53:43;;;;;;;;;;;;;;;36.05;23.68;101422.63;4979135;28;8033;-78
2022/08/08 09:56:13;;;;;;;;;;;;;;;36.16;22.54;101414.16;4978215;28;7292;-78
2022/08/08 09:58:52;;;;;;;;;;;;;;;36.06;23.03;101421.72;4974640;28;6951;-78
2022/08/08 10:01:22;;;;;;;;;;;;;;;36.04;22.60;101428.00;4978276;28;7208;-78
2022/08/08 10:03:49;;;;;;;;;;;;;;;36.11;22.23;101421.50;4972376;28;6780;-78
2022/08/08 10:06:18;;;;;;;;;;;;;;;36.15;22.20;101423.09;4975187;28;6785;-79
2022/08/08 10:08:49;;;;;;;;;;;;;;;36.14;22.05;101422.25;4977645;28;6807;-78
2022/08/08 10:11:22;;;;;;;;;;;;;;;36.26;22.58;101411.97;5006553;28;6808;-78
2022/08/08 10:14:03;;;;;;;;;;;;;;;36.71;22.93;101420.63;5013957;28;7428;-79
2022/08/08 10:16:40;;;;;;;;;;;;;;;37.23;21.93;101414.63;5011233;28;6976;-78
2022/08/08 10:19:10;;;;;;;;;;;;;;;37.35;21.74;101404.25;5011258;28;6800;-77
2022/08/08 10:21:37;;;;;;;;;;;;;;;37.30;20.83;101417.00;5014430;28;7045;-78
2022/08/08 10:24:10;;;;;;;;;;;;;;;37.28;21.56;101411.72;5014010;28;6800;-77
2022/08/08 10:26:51;;;;;;;;;;;;;;;37.51;21.27;101405.22;4980571;28;6799;-77
2022/08/08 10:29:35;;;;;;;;;;;;;;;37.76;20.56;101404.03;5014422;28;6854;-78
2022/08/08 10:34:53;;;;;;;;;;;;;;;37.37;20.35;101410.38;4979896;28;7223;-78
2022/08/08 10:37:30;;;;;;;;;;;;;;;37.32;20.35;101407.09;5015917;28;7047;-78
2022/08/08 10:39:59;;;;;;;;;;;;;;;37.30;20.07;101404.47;5011384;28;6800;-78
2022/08/08 10:42:35;;;;;;;;;;;;;;;37.33;20.32;101408.81;4982631;28;7157;-77
2022/08/08 10:45:06;;;;;;;;;;;;;;;37.44;20.55;101406.47;4980325;28;7221;-79
2022/08/08 10:47:32;;;;;;;;;;;;;;;37.41;20.52;101401.28;5029060;28;6999;-78
2022/08/08 10:50:02;;;;;;;;;;;;;;;37.40;19.97;101399.56;5015727;28;7255;-77
2022/08/08 10:52:36;;;;;;;;;;;;;;;37.30;20.24;101401.81;5011173;28;6831;-78
2022/08/08 10:55:12;;;;;;;;;;;;;;;37.29;19.96;101402.75;4977617;28;6840;-77
2022/08/08 10:57:49;;;;;;;;;;;;;;;37.56;19.83;101396.13;4982167;28;7031;-77
2022/08/08 11:00:26;;;;;;;;;;;;;;;37.78;20.43;101391.44;4982926;28;7243;-78
2022/08/08 11:02:54;;;;;;;;;;;;;;;38.15;20.19;101387.75;5015920;28;6812;-78
2022/08/08 11:05:20;;;;;;;;;;;;;;;38.30;19.49;101403.00;5010634;28;7262;-78
2022/08/08 11:07:53;;;;;;;;;;;;;;;38.28;19.47;101388.84;5013823;28;6908;-77
2022/08/08 11:10:24;;;;;;;;;;;;;;;38.56;19.47;101391.84;5012482;28;7209;-77
2022/08/08 11:12:58;;;;;;;;;;;;;;;38.64;19.10;101383.41;4995645;28;7415;-78
2022/08/08 11:15:28;;;;;;;;;;;;;;;38.49;18.94;101385.97;4982079;28;7136;-78
2022/08/08 11:17:54;;;;;;;;;;;;;;;38.33;18.75;101388.59;4980230;28;6804;-77
2022/08/08 11:20:26;;;;;;;;;;;;;;;38.22;18.76;101383.81;4984834;28;6939;-78
2022/08/08 11:22:58;;;;;;;;;;;;;;;38.22;18.66;101386.50;5027702;28;6971;-78
2022/08/08 11:25:30;;;;;;;;;;;;;;;38.08;18.92;101383.72;5013197;28;6803;-77
2022/08/08 11:27:58;;;;;;;;;;;;;;;37.85;18.98;101391.97;4986379;28;6792;-77
2022/08/08 11:30:28;;;;;;;;;;;;;;;37.88;20.05;101386.44;4970598;28;7063;-77
2022/08/08 11:33:00;;;;;;;;;;;;;;;38.40;20.21;101381.09;4967051;28;7475;-77
2022/08/08 11:35:27;;;;;;;;;;;;;;;39.12;19.47;101380.72;4980466;28;7081;-78
2022/08/08 11:37:53;;;;;;;;;;;;;;;39.62;18.44;101376.03;4993378;28;7018;-77
2022/08/08 11:40:19;;;;;;;;;;;;;;;39.99;18.21;101371.13;4978540;28;6792;-77
2022/08/08 11:42:45;;;;;;;;;;;;;;;40.15;17.68;101377.38;4992055;28;7235;-78
2022/08/08 11:45:12;;;;;;;;;;;;;;;39.93;17.58;101376.88;5015219;28;7068;-77
2022/08/08 11:47:40;;;;;;;;;;;;;;;39.79;17.65;101382.16;5028249;28;6986;-78
2022/08/08 11:50:11;;;;;;;;;;;;;;;39.70;17.61;101372.88;5012479;28;6844;-77
2022/08/08 11:52:38;;;;;;;;;;;;;;;39.75;17.82;101369.91;4974692;28;7184;-77
2022/08/08 11:55:26;;;;;;;;;;;;;;;39.75;17.58;101370.78;5002687;28;6999;-77
2022/08/08 11:58:07;;;;;;;;;;;;;;;39.52;17.76;101380.22;5001659;28;7233;-77
2022/08/08 12:00:41;;;;;;;;;;;;;;;39.25;17.49;101379.03;5011021;28;6812;-78
2022/08/08 12:03:25;;;;;;;;;;;;;;;39.02;18.39;101372.38;4996151;28;7988;-78
2022/08/08 12:05:52;;;;;;;;;;;;;;;39.00;18.44;101368.88;4983527;28;6879;-78
2022/08/08 12:08:36;;;;;;;;;;;;;;;38.89;18.48;101367.66;5010458;28;6832;-77
2022/08/08 12:11:11;;;;;;;;;;;;;;;38.86;18.41;101366.97;4992153;28;7858;-78
2022/08/08 12:13:37;;;;;;;;;;;;;;;38.72;18.73;101360.59;5009213;28;6859;-78
2022/08/08 12:16:16;;;;;;;;;;;;;;;38.55;19.08;101353.50;4997229;28;8421;-77
2022/08/08 12:18:51;;;;;;;;;;;;;;;38.65;19.00;101364.56;4999106;28;7021;-77
2022/08/08 12:21:27;;;;;;;;;;;;;;;38.47;18.62;101358.41;5000154;28;7412;-78
2022/08/08 12:24:06;;;;;;;;;;;;;;;38.03;19.05;101358.06;4973406;28;6808;-78
2022/08/08 12:26:47;;;;;;;;;;;;;;;37.79;19.48;101350.38;5004790;28;7414;-77
2022/08/08 12:29:25;;;;;;;;;;;;;;;37.86;19.71;101353.56;4981446;28;6954;-78
2022/08/08 12:32:05;;;;;;;;;;;;;;;37.88;19.11;101364.19;4980943;28;7210;-77
2022/08/08 12:34:42;;;;;;;;;;;;;;;37.79;19.08;101344.13;4980020;28;7497;-78
2022/08/08 12:37:17;;;;;;;;;;;;;;;37.71;19.57;101357.03;5012400;28;6815;-77
2022/08/08 12:39:42;;;;;;;;;;;;;;;37.80;20.09;101353.88;4975871;28;6816;-78
2022/08/08 12:42:08;;;;;;;;;;;;;;;37.94;19.54;101355.84;4977163;28;6837;-77
2022/08/08 12:44:35;;;;;;;;;;;;;;;38.04;19.51;101350.91;5013318;28;6971;-77
2022/08/08 12:47:04;;;;;;;;;;;;;;;38.19;19.65;101346.53;4980040;28;6876;-77
2022/08/08 12:49:33;;;;;;;;;;;;;;;38.36;19.67;101342.06;4974805;28;6788;-77
2022/08/08 12:51:59;;;;;;;;;;;;;;;38.28;19.27;101348.69;4978166;28;6784;-77
2022/08/08 12:54:37;;;;;;;;;;;;;;;37.91;19.35;101331.94;4983609;28;7044;-77
2022/08/08 12:57:21;;;;;;;;;;;;;;;37.54;19.73;101353.44;4980547;28;8359;-77
2022/08/08 12:59:50;;;;;;;;;;;;;;;37.54;20.57;101344.56;4982669;28;6788;-77
2022/08/08 13:02:32;;;;;;;;;;;;;;;37.64;20.27;101341.34;4975304;28;7897;-77
2022/08/08 13:05:03;;;;;;;;;;;;;;;37.71;20.47;101341.88;5021925;28;6991;-76
2022/08/08 13:07:38;;;;;;;;;;;;;;;37.83;20.58;101334.16;5008592;28;6808;-77
2022/08/08 13:10:14;;;;;;;;;;;;;;;38.08;19.91;101332.88;4981772;28;6796;-78
2022/08/08 13:12:43;;;;;;;;;;;;;;;38.07;19.58;101342.69;5013391;28;6991;-77
2022/08/08 13:15:21;;;;;;;;;;;;;;;37.99;19.64;101342.22;5024435;28;6856;-77
2022/08/08 13:17:47;;;;;;;;;;;;;;;37.85;19.81;101349.16;4981117;28;7038;-77
2022/08/08 13:20:18;;;;;;;;;;;;;;;37.81;19.56;101331.53;5012909;28;6772;-77
2022/08/08 13:22:45;;;;;;;;;;;;;;;37.79;19.90;101328.97;4976123;28;9200;-77
2022/08/08 13:25:20;;;;;;;;;;;;;;;37.71;19.73;101331.19;4995546;28;8694;-77
2022/08/08 13:27:55;;;;;;;;;;;;;;;37.47;19.37;101334.16;5013646;28;7221;-78
2022/08/08 13:30:26;;;;;;;;;;;;;;;37.28;19.87;101333.34;5003110;28;7034;-77
2022/08/08 13:32:57;;;;;;;;;;;;;;;37.14;19.59;101334.91;4981234;28;7746;-78
2022/08/08 13:35:27;;;;;;;;;;;;;;;36.96;19.85;101326.84;4984481;28;7113;-78
2022/08/08 13:38:01;;;;;;;;;;;;;;;36.69;20.13;101337.06;4982155;28;6968;-79
2022/08/08 13:40:28;;;;;;;;;;;;;;;36.43;19.67;101336.47;4979113;28;6839;-78